sensor_id;sensor_type;location;lat;lon;timestamp;pressure;altitude;pressure_sealevel;temperature;humidity
19777;BME280;10047;42.490;26.012;2023-05-21T00:00:26;99763.09;;;18.12;100.00
19777;BME280;10047;42.490;26.012;2023-05-21T00:02:52;99732.81;;;18.03;100.00
19777;BME280;10047;42.490;26.012;2023-05-21T00:05:18;99700.34;;;17.74;100.00
19777;BME280;10047;42.490;26.012;2023-05-21T00:07:45;99744.56;;;18.07;100.00
19777;BME280;10047;42.490;26.012;2023-05-21T00:10:11;99750.19;;;18.00;100.00
19777;BME280;10047;42.490;26.012;2023-05-21T00:12:37;99753.75;;;17.97;100.00
19777;BME280;10047;42.490;26.012;2023-05-21T00:15:03;99705.03;;;17.68;100.00
19777;BME280;10047;42.490;26.012;2023-05-21T00:17:29;99731.19;;;17.88;100.00
19777;BME280;10047;42.490;26.012;2023-05-21T00:19:54;99670.97;;;17.36;100.00
19777;BME280;10047;42.490;26.012;2023-05-21T00:22:21;99670.25;;;17.34;100.00
19777;BME280;10047;42.490;26.012;2023-05-21T00:24:46;99623.72;;;17.10;100.00
19777;BME280;10047;42.490;26.012;2023-05-21T00:27:12;99661.63;;;17.35;100.00
19777;BME280;10047;42.490;26.012;2023-05-21T00:29:37;99654.34;;;17.42;100.00
19777;BME280;10047;42.490;26.012;2023-05-21T00:32:03;99569.69;;;16.98;100.00
19777;BME280;10047;42.490;26.012;2023-05-21T00:34:29;99632.69;;;17.31;100.00
19777;BME280;10047;42.490;26.012;2023-05-21T00:36:54;99570.44;;;17.00;100.00
19777;BME280;10047;42.490;26.012;2023-05-21T00:39:22;99558.53;;;16.99;100.00
19777;BME280;10047;42.490;26.012;2023-05-21T00:41:47;99517.09;;;16.77;100.00
19777;BME280;10047;42.490;26.012;2023-05-21T00:44:13;99590.94;;;17.28;100.00
19777;BME280;10047;42.490;26.012;2023-05-21T00:46:41;99588.00;;;17.34;100.00
19777;BME280;10047;42.490;26.012;2023-05-21T00:49:09;99574.63;;;17.29;100.00
19777;BME280;10047;42.490;26.012;2023-05-21T00:51:35;99529.16;;;17.03;100.00
19777;BME280;10047;42.490;26.012;2023-05-21T00:54:00;99574.09;;;17.10;100.00
19777;BME280;10047;42.490;26.012;2023-05-21T00:56:26;99576.19;;;17.17;100.00
19777;BME280;10047;42.490;26.012;2023-05-21T00:58:55;99542.75;;;17.05;100.00
19777;BME280;10047;42.490;26.012;2023-05-21T01:01:22;99481.94;;;17.05;100.00
19777;BME280;10047;42.490;26.012;2023-05-21T01:03:50;99534.19;;;17.04;100.00
19777;BME280;10047;42.490;26.012;2023-05-21T01:06:31;99513.66;;;17.04;100.00
19777;BME280;10047;42.490;26.012;2023-05-21T01:08:59;99478.16;;;16.97;100.00
19777;BME280;10047;42.490;26.012;2023-05-21T01:11:53;99454.00;;;16.73;100.00
19777;BME280;10047;42.490;26.012;2023-05-21T01:14:18;99501.91;;;17.00;100.00
19777;BME280;10047;42.490;26.012;2023-05-21T01:16:46;99490.09;;;16.98;100.00
19777;BME280;10047;42.490;26.012;2023-05-21T01:19:17;99438.50;;;16.74;100.00
19777;BME280;10047;42.490;26.012;2023-05-21T01:21:45;99429.56;;;16.53;100.00
19777;BME280;10047;42.490;26.012;2023-05-21T01:24:13;99431.50;;;16.50;100.00
19777;BME280;10047;42.490;26.012;2023-05-21T01:26:38;99441.44;;;16.68;100.00
19777;BME280;10047;42.490;26.012;2023-05-21T01:29:07;99475.88;;;16.92;100.00
19777;BME280;10047;42.490;26.012;2023-05-21T01:34:11;99434.19;;;16.75;100.00
19777;BME280;10047;42.490;26.012;2023-05-21T01:36:43;99471.75;;;16.90;100.00
19777;BME280;10047;42.490;26.012;2023-05-21T01:39:15;99474.03;;;16.94;100.00
19777;BME280;10047;42.490;26.012;2023-05-21T01:41:44;99419.47;;;16.50;100.00
19777;BME280;10047;42.490;26.012;2023-05-21T01:44:11;99409.03;;;16.53;100.00
19777;BME280;10047;42.490;26.012;2023-05-21T01:46:39;99454.53;;;16.78;100.00
19777;BME280;10047;42.490;26.012;2023-05-21T01:49:06;99472.41;;;16.93;100.00
19777;BME280;10047;42.490;26.012;2023-05-21T01:51:33;99486.59;;;16.99;100.00
19777;BME280;10047;42.490;26.012;2023-05-21T01:54:00;99434.31;;;16.73;100.00
19777;BME280;10047;42.490;26.012;2023-05-21T01:56:26;99430.81;;;16.74;100.00
19777;BME280;10047;42.490;26.012;2023-05-21T01:59:01;99422.56;;;16.69;100.00
19777;BME280;10047;42.490;26.012;2023-05-21T02:01:27;99428.13;;;16.76;100.00
19777;BME280;10047;42.490;26.012;2023-05-21T02:03:55;99430.00;;;16.74;100.00
19777;BME280;10047;42.490;26.012;2023-05-21T02:06:21;99429.59;;;16.80;100.00
19777;BME280;10047;42.490;26.012;2023-05-21T02:08:46;99399.50;;;16.55;100.00
19777;BME280;10047;42.490;26.012;2023-05-21T02:11:12;99494.13;;;17.28;100.00
19777;BME280;10047;42.490;26.012;2023-05-21T02:13:38;99404.25;;;16.61;100.00
19777;BME280;10047;42.490;26.012;2023-05-21T02:16:10;99500.16;;;17.15;100.00
19777;BME280;10047;42.490;26.012;2023-05-21T02:18:37;99502.69;;;17.29;100.00
19777;BME280;10047;42.490;26.012;2023-05-21T02:21:02;99505.09;;;17.45;100.00
19777;BME280;10047;42.490;26.012;2023-05-21T02:23:28;99495.00;;;17.42;100.00
19777;BME280;10047;42.490;26.012;2023-05-21T02:25:53;99487.53;;;17.24;100.00
19777;BME280;10047;42.490;26.012;2023-05-21T02:28:18;99466.09;;;17.11;100.00
19777;BME280;10047;42.490;26.012;2023-05-21T02:30:45;99516.50;;;17.41;100.00
19777;BME280;10047;42.490;26.012;2023-05-21T02:33:11;99508.63;;;17.29;100.00
19777;BME280;10047;42.490;26.012;2023-05-21T02:35:38;99471.88;;;17.15;100.00
19777;BME280;10047;42.490;26.012;2023-05-21T02:38:04;99499.59;;;17.10;100.00
19777;BME280;10047;42.490;26.012;2023-05-21T02:40:29;99501.25;;;17.11;100.00
19777;BME280;10047;42.490;26.012;2023-05-21T02:42:54;99525.88;;;17.27;100.00
19777;BME280;10047;42.490;26.012;2023-05-21T02:45:20;99538.66;;;17.29;100.00
19777;BME280;10047;42.490;26.012;2023-05-21T02:47:45;99553.75;;;17.33;100.00
19777;BME280;10047;42.490;26.012;2023-05-21T02:50:12;99534.81;;;17.22;100.00
19777;BME280;10047;42.490;26.012;2023-05-21T02:52:38;99542.97;;;17.28;100.00
19777;BME280;10047;42.490;26.012;2023-05-21T02:55:04;99497.22;;;17.07;100.00
19777;BME280;10047;42.490;26.012;2023-05-21T02:57:29;99562.56;;;17.44;100.00
19777;BME280;10047;42.490;26.012;2023-05-21T02:59:54;99552.47;;;17.41;100.00
19777;BME280;10047;42.490;26.012;2023-05-21T03:02:20;99577.25;;;17.56;100.00
19777;BME280;10047;42.490;26.012;2023-05-21T03:04:45;99557.63;;;17.41;100.00
19777;BME280;10047;42.490;26.012;2023-05-21T03:07:14;99597.91;;;17.54;100.00
19777;BME280;10047;42.490;26.012;2023-05-21T03:09:40;99537.56;;;17.19;100.00
19777;BME280;10047;42.490;26.012;2023-05-21T03:12:06;99503.22;;;16.93;100.00
19777;BME280;10047;42.490;26.012;2023-05-21T03:14:33;99601.38;;;17.39;100.00
19777;BME280;10047;42.490;26.012;2023-05-21T03:16:59;99514.78;;;16.86;100.00
19777;BME280;10047;42.490;26.012;2023-05-21T03:19:25;99568.78;;;17.13;100.00
19777;BME280;10047;42.490;26.012;2023-05-21T03:21:50;99592.88;;;17.39;100.00
19777;BME280;10047;42.490;26.012;2023-05-21T03:24:16;99599.94;;;17.35;100.00
19777;BME280;10047;42.490;26.012;2023-05-21T03:26:49;99552.56;;;16.98;100.00
19777;BME280;10047;42.490;26.012;2023-05-21T03:29:15;99542.84;;;17.03;100.00
19777;BME280;10047;42.490;26.012;2023-05-21T03:31:40;99569.91;;;16.95;100.00
19777;BME280;10047;42.490;26.012;2023-05-21T03:34:06;99537.69;;;17.03;100.00
19777;BME280;10047;42.490;26.012;2023-05-21T03:36:32;99567.84;;;17.14;100.00
19777;BME280;10047;42.490;26.012;2023-05-21T03:38:58;99517.44;;;16.85;100.00
19777;BME280;10047;42.490;26.012;2023-05-21T03:41:23;99506.69;;;16.92;100.00
19777;BME280;10047;42.490;26.012;2023-05-21T03:43:49;99502.13;;;16.83;100.00
19777;BME280;10047;42.490;26.012;2023-05-21T03:46:14;99540.03;;;17.20;100.00
19777;BME280;10047;42.490;26.012;2023-05-21T03:48:40;99537.47;;;17.20;100.00
19777;BME280;10047;42.490;26.012;2023-05-21T03:51:05;99480.56;;;16.86;100.00
19777;BME280;10047;42.490;26.012;2023-05-21T03:53:32;99497.63;;;16.87;100.00
19777;BME280;10047;42.490;26.012;2023-05-21T03:55:58;99533.03;;;17.37;100.00
19777;BME280;10047;42.490;26.012;2023-05-21T03:58:23;99490.59;;;17.17;100.00
19777;BME280;10047;42.490;26.012;2023-05-21T04:00:49;99512.38;;;17.38;100.00
19777;BME280;10047;42.490;26.012;2023-05-21T04:03:15;99483.28;;;17.11;100.00
19777;BME280;10047;42.490;26.012;2023-05-21T04:05:42;99530.56;;;17.62;100.00
19777;BME280;10047;42.490;26.012;2023-05-21T04:08:07;99479.94;;;17.23;100.00
19777;BME280;10047;42.490;26.012;2023-05-21T04:10:33;99540.09;;;17.74;100.00
19777;BME280;10047;42.490;26.012;2023-05-21T04:12:59;99546.50;;;17.54;100.00
19777;BME280;10047;42.490;26.012;2023-05-21T04:15:24;99493.25;;;17.42;100.00
19777;BME280;10047;42.490;26.012;2023-05-21T04:17:51;99484.94;;;17.39;100.00
19777;BME280;10047;42.490;26.012;2023-05-21T04:20:17;99540.09;;;17.74;100.00
19777;BME280;10047;42.490;26.012;2023-05-21T04:22:42;99528.00;;;17.62;100.00
19777;BME280;10047;42.490;26.012;2023-05-21T04:25:08;99449.53;;;17.29;100.00
19777;BME280;10047;42.490;26.012;2023-05-21T04:27:35;99488.72;;;17.60;100.00
19777;BME280;10047;42.490;26.012;2023-05-21T04:30:01;99553.94;;;17.98;100.00
19777;BME280;10047;42.490;26.012;2023-05-21T04:32:29;99548.41;;;18.04;100.00
19777;BME280;10047;42.490;26.012;2023-05-21T04:34:55;99507.09;;;17.80;100.00
19777;BME280;10047;42.490;26.012;2023-05-21T04:37:21;99499.72;;;17.62;100.00
19777;BME280;10047;42.490;26.012;2023-05-21T04:39:48;99482.53;;;17.50;100.00
19777;BME280;10047;42.490;26.012;2023-05-21T04:42:14;99517.72;;;17.62;100.00
19777;BME280;10047;42.490;26.012;2023-05-21T04:44:40;99483.69;;;17.58;100.00
19777;BME280;10047;42.490;26.012;2023-05-21T04:47:08;99499.06;;;17.85;100.00
19777;BME280;10047;42.490;26.012;2023-05-21T04:49:34;99469.41;;;17.67;100.00
19777;BME280;10047;42.490;26.012;2023-05-21T04:52:01;99465.41;;;17.63;100.00
19777;BME280;10047;42.490;26.012;2023-05-21T04:54:29;99451.28;;;17.56;100.00
19777;BME280;10047;42.490;26.012;2023-05-21T04:56:54;99411.50;;;17.74;100.00
19777;BME280;10047;42.490;26.012;2023-05-21T04:59:20;99496.22;;;18.27;100.00
19777;BME280;10047;42.490;26.012;2023-05-21T05:01:45;99502.19;;;18.40;100.00
19777;BME280;10047;42.490;26.012;2023-05-21T05:04:11;99506.94;;;18.34;100.00
19777;BME280;10047;42.490;26.012;2023-05-21T05:06:36;99439.91;;;17.97;100.00
19777;BME280;10047;42.490;26.012;2023-05-21T05:09:02;99473.06;;;18.27;100.00
19777;BME280;10047;42.490;26.012;2023-05-21T05:11:28;99449.16;;;17.87;100.00
19777;BME280;10047;42.490;26.012;2023-05-21T05:13:54;99428.47;;;17.64;100.00
19777;BME280;10047;42.490;26.012;2023-05-21T05:16:19;99437.75;;;18.04;100.00
19777;BME280;10047;42.490;26.012;2023-05-21T05:18:52;99483.34;;;18.27;100.00
19777;BME280;10047;42.490;26.012;2023-05-21T05:21:19;99473.47;;;18.46;100.00
19777;BME280;10047;42.490;26.012;2023-05-21T05:23:45;99409.00;;;18.35;100.00
19777;BME280;10047;42.490;26.012;2023-05-21T05:26:10;99455.19;;;18.74;100.00
19777;BME280;10047;42.490;26.012;2023-05-21T05:28:36;99439.91;;;18.84;100.00
19777;BME280;10047;42.490;26.012;2023-05-21T05:31:01;99454.22;;;18.88;100.00
19777;BME280;10047;42.490;26.012;2023-05-21T05:33:26;99439.44;;;19.02;100.00
19777;BME280;10047;42.490;26.012;2023-05-21T05:35:52;99446.63;;;18.86;100.00
19777;BME280;10047;42.490;26.012;2023-05-21T05:38:17;99406.63;;;18.57;100.00
19777;BME280;10047;42.490;26.012;2023-05-21T05:40:43;99386.53;;;18.86;100.00
19777;BME280;10047;42.490;26.012;2023-05-21T05:43:08;99396.03;;;19.09;100.00
19777;BME280;10047;42.490;26.012;2023-05-21T05:45:34;99406.22;;;19.11;100.00
19777;BME280;10047;42.490;26.012;2023-05-21T05:47:59;99407.16;;;19.33;100.00
19777;BME280;10047;42.490;26.012;2023-05-21T05:50:24;99463.75;;;19.58;100.00
19777;BME280;10047;42.490;26.012;2023-05-21T05:52:50;99431.59;;;19.86;100.00
19777;BME280;10047;42.490;26.012;2023-05-21T05:55:15;99488.09;;;20.24;100.00
19777;BME280;10047;42.490;26.012;2023-05-21T05:57:41;99494.56;;;20.40;100.00
19777;BME280;10047;42.490;26.012;2023-05-21T06:00:07;99446.66;;;20.36;100.00
19777;BME280;10047;42.490;26.012;2023-05-21T06:02:34;99422.59;;;20.58;100.00
19777;BME280;10047;42.490;26.012;2023-05-21T06:05:00;99480.31;;;20.90;100.00
19777;BME280;10047;42.490;26.012;2023-05-21T06:07:27;99537.59;;;21.71;100.00
19777;BME280;10047;42.490;26.012;2023-05-21T06:09:53;99561.91;;;21.48;100.00
19777;BME280;10047;42.490;26.012;2023-05-21T06:12:18;99555.47;;;21.42;100.00
19777;BME280;10047;42.490;26.012;2023-05-21T06:14:43;99559.25;;;21.81;100.00
19777;BME280;10047;42.490;26.012;2023-05-21T06:17:10;99597.84;;;21.73;100.00
19777;BME280;10047;42.490;26.012;2023-05-21T06:19:36;99613.13;;;22.39;100.00
19777;BME280;10047;42.490;26.012;2023-05-21T06:22:02;99629.50;;;22.61;100.00
19777;BME280;10047;42.490;26.012;2023-05-21T06:24:28;99639.81;;;23.02;100.00
19777;BME280;10047;42.490;26.012;2023-05-21T06:26:54;99681.41;;;22.91;100.00
19777;BME280;10047;42.490;26.012;2023-05-21T06:29:19;99668.81;;;22.13;100.00
19777;BME280;10047;42.490;26.012;2023-05-21T06:31:45;99702.53;;;22.34;100.00
19777;BME280;10047;42.490;26.012;2023-05-21T06:34:11;99749.78;;;22.90;100.00
19777;BME280;10047;42.490;26.012;2023-05-21T06:36:36;99683.25;;;22.59;100.00
19777;BME280;10047;42.490;26.012;2023-05-21T06:39:02;99755.69;;;22.60;100.00
19777;BME280;10047;42.490;26.012;2023-05-21T06:41:27;99753.50;;;23.38;100.00
19777;BME280;10047;42.490;26.012;2023-05-21T06:43:53;99786.81;;;23.33;100.00
19777;BME280;10047;42.490;26.012;2023-05-21T06:46:18;99762.47;;;23.55;100.00
19777;BME280;10047;42.490;26.012;2023-05-21T06:48:44;99865.91;;;23.59;100.00
19777;BME280;10047;42.490;26.012;2023-05-21T06:51:10;99934.44;;;23.47;100.00
19777;BME280;10047;42.490;26.012;2023-05-21T06:53:36;100176.28;;;23.63;100.00
19777;BME280;10047;42.490;26.012;2023-05-21T06:56:01;100411.09;;;23.83;100.00
19777;BME280;10047;42.490;26.012;2023-05-21T06:58:27;100820.84;;;23.68;100.00
19777;BME280;10047;42.490;26.012;2023-05-21T07:00:56;101281.16;;;23.45;100.00
19777;BME280;10047;42.490;26.012;2023-05-21T07:03:21;101933.91;;;23.44;100.00
19777;BME280;10047;42.490;26.012;2023-05-21T07:05:47;102388.50;;;23.43;100.00
19777;BME280;10047;42.490;26.012;2023-05-21T07:08:12;102791.00;;;22.72;100.00
19777;BME280;10047;42.490;26.012;2023-05-21T07:10:38;103999.66;;;22.61;100.00
19777;BME280;10047;42.490;26.012;2023-05-21T07:13:03;104266.13;;;22.57;100.00
19777;BME280;10047;42.490;26.012;2023-05-21T07:15:28;104495.38;;;22.58;100.00
19777;BME280;10047;42.490;26.012;2023-05-21T07:17:54;104584.19;;;23.17;100.00
19777;BME280;10047;42.490;26.012;2023-05-21T07:20:20;103922.13;;;23.90;100.00
19777;BME280;10047;42.490;26.012;2023-05-21T07:22:45;103638.13;;;23.41;100.00
19777;BME280;10047;42.490;26.012;2023-05-21T07:25:10;103376.97;;;23.25;100.00
19777;BME280;10047;42.490;26.012;2023-05-21T07:27:36;103354.03;;;23.42;100.00
19777;BME280;10047;42.490;26.012;2023-05-21T07:30:01;103353.16;;;24.01;100.00
19777;BME280;10047;42.490;26.012;2023-05-21T07:32:27;103104.59;;;23.70;100.00
19777;BME280;10047;42.490;26.012;2023-05-21T07:34:54;102998.72;;;23.99;100.00
19777;BME280;10047;42.490;26.012;2023-05-21T07:37:20;102823.97;;;23.44;100.00
19777;BME280;10047;42.490;26.012;2023-05-21T07:39:45;102764.19;;;23.45;100.00
19777;BME280;10047;42.490;26.012;2023-05-21T07:42:11;102704.84;;;23.10;100.00
19777;BME280;10047;42.490;26.012;2023-05-21T07:44:36;102735.00;;;23.39;100.00
19777;BME280;10047;42.490;26.012;2023-05-21T07:47:02;102665.53;;;22.97;100.00
19777;BME280;10047;42.490;26.012;2023-05-21T07:49:27;102650.34;;;22.87;100.00
19777;BME280;10047;42.490;26.012;2023-05-21T07:51:52;102616.31;;;23.17;100.00
19777;BME280;10047;42.490;26.012;2023-05-21T07:54:18;102540.16;;;22.95;100.00
19777;BME280;10047;42.490;26.012;2023-05-21T07:56:43;102590.94;;;23.24;100.00
19777;BME280;10047;42.490;26.012;2023-05-21T07:59:09;102586.41;;;23.07;100.00
19777;BME280;10047;42.490;26.012;2023-05-21T08:01:34;102592.94;;;22.94;100.00
19777;BME280;10047;42.490;26.012;2023-05-21T08:04:01;102734.34;;;22.84;100.00
19777;BME280;10047;42.490;26.012;2023-05-21T08:06:31;102806.53;;;22.46;100.00
19777;BME280;10047;42.490;26.012;2023-05-21T08:09:02;102967.59;;;22.95;100.00
19777;BME280;10047;42.490;26.012;2023-05-21T08:11:27;103110.44;;;23.76;100.00
19777;BME280;10047;42.490;26.012;2023-05-21T08:14:06;103305.47;;;23.73;100.00
19777;BME280;10047;42.490;26.012;2023-05-21T08:16:31;103695.59;;;24.01;100.00
19777;BME280;10047;42.490;26.012;2023-05-21T08:18:57;103725.22;;;23.57;100.00
19777;BME280;10047;42.490;26.012;2023-05-21T08:21:22;103830.69;;;24.10;100.00
19777;BME280;10047;42.490;26.012;2023-05-21T08:23:47;104122.97;;;23.54;100.00
19777;BME280;10047;42.490;26.012;2023-05-21T08:26:13;103790.06;;;23.20;100.00
19777;BME280;10047;42.490;26.012;2023-05-21T08:28:40;103638.38;;;23.29;100.00
19777;BME280;10047;42.490;26.012;2023-05-21T08:31:06;103617.84;;;23.55;100.00
19777;BME280;10047;42.490;26.012;2023-05-21T08:33:34;103615.53;;;23.80;100.00
19777;BME280;10047;42.490;26.012;2023-05-21T08:36:02;103356.41;;;23.80;100.00
19777;BME280;10047;42.490;26.012;2023-05-21T08:38:27;103410.41;;;24.31;100.00
19777;BME280;10047;42.490;26.012;2023-05-21T08:40:53;103208.53;;;23.97;100.00
19777;BME280;10047;42.490;26.012;2023-05-21T08:43:19;103168.06;;;23.89;100.00
19777;BME280;10047;42.490;26.012;2023-05-21T08:45:52;103214.25;;;23.53;100.00
19777;BME280;10047;42.490;26.012;2023-05-21T08:48:21;103287.63;;;24.20;100.00
19777;BME280;10047;42.490;26.012;2023-05-21T08:50:49;103037.44;;;24.08;100.00
19777;BME280;10047;42.490;26.012;2023-05-21T08:53:15;102849.56;;;23.29;100.00
19777;BME280;10047;42.490;26.012;2023-05-21T08:55:42;102813.50;;;23.47;100.00
19777;BME280;10047;42.490;26.012;2023-05-21T08:58:08;102727.69;;;23.48;100.00
19777;BME280;10047;42.490;26.012;2023-05-21T09:00:34;102696.44;;;23.94;100.00
19777;BME280;10047;42.490;26.012;2023-05-21T09:03:00;102602.19;;;23.89;100.00
19777;BME280;10047;42.490;26.012;2023-05-21T09:05:27;102425.94;;;23.77;100.00
19777;BME280;10047;42.490;26.012;2023-05-21T09:08:02;102214.13;;;23.50;100.00
19777;BME280;10047;42.490;26.012;2023-05-21T09:10:38;101945.56;;;24.04;100.00
19777;BME280;10047;42.490;26.012;2023-05-21T09:13:04;101555.28;;;24.10;100.00
19777;BME280;10047;42.490;26.012;2023-05-21T09:15:32;101094.53;;;23.80;100.00
19777;BME280;10047;42.490;26.012;2023-05-21T09:17:57;100772.28;;;24.30;100.00
19777;BME280;10047;42.490;26.012;2023-05-21T09:20:24;100535.34;;;24.57;100.00
19777;BME280;10047;42.490;26.012;2023-05-21T09:22:50;100496.22;;;24.58;100.00
19777;BME280;10047;42.490;26.012;2023-05-21T09:25:24;100347.59;;;24.20;100.00
19777;BME280;10047;42.490;26.012;2023-05-21T09:27:56;100239.06;;;24.13;100.00
19777;BME280;10047;42.490;26.012;2023-05-21T09:30:22;100212.78;;;23.73;100.00
19777;BME280;10047;42.490;26.012;2023-05-21T09:32:53;100201.00;;;24.43;100.00
19777;BME280;10047;42.490;26.012;2023-05-21T09:35:19;100118.88;;;24.61;100.00
19777;BME280;10047;42.490;26.012;2023-05-21T09:37:46;100075.06;;;23.84;100.00
19777;BME280;10047;42.490;26.012;2023-05-21T09:40:14;100140.88;;;24.16;100.00
19777;BME280;10047;42.490;26.012;2023-05-21T09:42:42;100102.28;;;24.32;100.00
19777;BME280;10047;42.490;26.012;2023-05-21T09:45:08;100086.25;;;25.18;100.00
19777;BME280;10047;42.490;26.012;2023-05-21T09:47:42;100040.06;;;24.70;100.00
19777;BME280;10047;42.490;26.012;2023-05-21T09:50:11;100077.25;;;24.61;100.00
19777;BME280;10047;42.490;26.012;2023-05-21T09:52:37;100118.06;;;24.40;100.00
19777;BME280;10047;42.490;26.012;2023-05-21T09:55:08;100126.09;;;24.17;100.00
19777;BME280;10047;42.490;26.012;2023-05-21T09:57:42;100068.41;;;23.70;100.00
19777;BME280;10047;42.490;26.012;2023-05-21T10:00:15;100055.88;;;24.28;100.00
19777;BME280;10047;42.490;26.012;2023-05-21T10:02:43;100125.28;;;24.37;100.00
19777;BME280;10047;42.490;26.012;2023-05-21T10:05:09;100111.00;;;23.79;100.00
19777;BME280;10047;42.490;26.012;2023-05-21T10:07:36;100120.59;;;24.10;100.00
19777;BME280;10047;42.490;26.012;2023-05-21T10:10:03;100059.06;;;23.79;100.00
19777;BME280;10047;42.490;26.012;2023-05-21T10:12:32;100025.19;;;24.22;100.00
19777;BME280;10047;42.490;26.012;2023-05-21T10:15:02;99992.31;;;23.79;100.00
19777;BME280;10047;42.490;26.012;2023-05-21T10:17:29;99951.69;;;23.69;100.00
19777;BME280;10047;42.490;26.012;2023-05-21T10:19:55;100010.72;;;24.29;100.00
19777;BME280;10047;42.490;26.012;2023-05-21T10:22:23;100027.13;;;24.50;100.00
19777;BME280;10047;42.490;26.012;2023-05-21T10:24:49;100039.91;;;24.12;100.00
19777;BME280;10047;42.490;26.012;2023-05-21T10:27:16;100016.22;;;23.94;100.00
19777;BME280;10047;42.490;26.012;2023-05-21T10:29:43;99984.84;;;23.45;100.00
19777;BME280;10047;42.490;26.012;2023-05-21T10:32:11;100018.22;;;23.49;100.00
19777;BME280;10047;42.490;26.012;2023-05-21T10:34:37;100042.44;;;23.91;100.00
19777;BME280;10047;42.490;26.012;2023-05-21T10:37:03;100010.28;;;23.51;100.00
19777;BME280;10047;42.490;26.012;2023-05-21T10:39:32;100056.03;;;23.63;100.00
19777;BME280;10047;42.490;26.012;2023-05-21T10:44:48;100010.28;;;22.86;100.00
19777;BME280;10047;42.490;26.012;2023-05-21T10:47:26;100085.72;;;23.49;100.00
19777;BME280;10047;42.490;26.012;2023-05-21T10:56:03;100029.84;;;23.01;100.00
19777;BME280;10047;42.490;26.012;2023-05-21T11:01:20;100081.38;;;23.05;100.00
19777;BME280;10047;42.490;26.012;2023-05-21T11:03:46;100025.88;;;22.64;100.00
19777;BME280;10047;42.490;26.012;2023-05-21T11:06:25;100149.41;;;23.20;100.00
19777;BME280;10047;42.490;26.012;2023-05-21T11:08:51;100138.44;;;22.49;100.00
19777;BME280;10047;42.490;26.012;2023-05-21T11:11:48;100266.84;;;22.65;100.00
19777;BME280;10047;42.490;26.012;2023-05-21T11:17:14;100378.19;;;22.30;100.00
19777;BME280;10047;42.490;26.012;2023-05-21T11:19:45;100419.69;;;22.54;100.00
19777;BME280;10047;42.490;26.012;2023-05-21T11:22:25;100427.84;;;22.37;100.00
19777;BME280;10047;42.490;26.012;2023-05-21T11:24:52;100387.56;;;22.20;100.00
19777;BME280;10047;42.490;26.012;2023-05-21T11:27:37;100405.91;;;22.17;100.00
19777;BME280;10047;42.490;26.012;2023-05-21T11:30:17;100461.63;;;22.48;100.00
19777;BME280;10047;42.490;26.012;2023-05-21T11:38:08;100506.00;;;22.31;100.00
19777;BME280;10047;42.490;26.012;2023-05-21T11:40:34;100539.88;;;22.53;100.00
19777;BME280;10047;42.490;26.012;2023-05-21T11:43:00;100526.22;;;22.26;100.00
19777;BME280;10047;42.490;26.012;2023-05-21T11:45:32;100597.47;;;22.58;100.00
19777;BME280;10047;42.490;26.012;2023-05-21T11:47:57;100537.41;;;22.26;100.00
19777;BME280;10047;42.490;26.012;2023-05-21T11:50:23;100611.56;;;22.67;100.00
19777;BME280;10047;42.490;26.012;2023-05-21T11:52:51;100618.22;;;22.71;100.00
19777;BME280;10047;42.490;26.012;2023-05-21T11:55:23;100579.81;;;22.38;100.00
19777;BME280;10047;42.490;26.012;2023-05-21T11:57:52;100573.69;;;22.52;100.00
19777;BME280;10047;42.490;26.012;2023-05-21T12:00:17;100753.50;;;22.77;100.00
19777;BME280;10047;42.490;26.012;2023-05-21T12:02:45;100895.88;;;22.94;100.00
19777;BME280;10047;42.490;26.012;2023-05-21T12:05:10;100984.78;;;22.56;100.00
19777;BME280;10047;42.490;26.012;2023-05-21T12:07:36;101135.94;;;22.86;100.00
19777;BME280;10047;42.490;26.012;2023-05-21T12:10:02;101216.53;;;22.69;100.00
19777;BME280;10047;42.490;26.012;2023-05-21T12:12:30;101335.31;;;22.78;100.00
19777;BME280;10047;42.490;26.012;2023-05-21T12:14:57;101345.09;;;22.73;100.00
19777;BME280;10047;42.490;26.012;2023-05-21T12:17:23;101503.56;;;23.31;100.00
19777;BME280;10047;42.490;26.012;2023-05-21T12:19:51;101555.09;;;23.38;100.00
19777;BME280;10047;42.490;26.012;2023-05-21T12:22:17;101590.22;;;22.97;100.00
19777;BME280;10047;42.490;26.012;2023-05-21T12:24:43;101683.75;;;23.11;100.00
19777;BME280;10047;42.490;26.012;2023-05-21T12:27:09;101763.16;;;23.15;100.00
19777;BME280;10047;42.490;26.012;2023-05-21T12:29:40;101798.03;;;22.92;100.00
19777;BME280;10047;42.490;26.012;2023-05-21T12:32:19;101850.78;;;23.27;100.00
19777;BME280;10047;42.490;26.012;2023-05-21T12:34:50;101926.75;;;23.49;100.00
19777;BME280;10047;42.490;26.012;2023-05-21T12:37:26;102003.38;;;23.75;100.00
19777;BME280;10047;42.490;26.012;2023-05-21T12:40:02;102011.69;;;23.98;100.00
19777;BME280;10047;42.490;26.012;2023-05-21T12:42:36;101984.94;;;23.62;100.00
19777;BME280;10047;42.490;26.012;2023-05-21T12:45:08;102022.59;;;23.54;100.00
19777;BME280;10047;42.490;26.012;2023-05-21T12:47:46;102013.03;;;23.18;100.00
19777;BME280;10047;42.490;26.012;2023-05-21T12:50:12;102113.16;;;23.61;100.00
19777;BME280;10047;42.490;26.012;2023-05-21T12:52:39;102158.88;;;23.47;100.00
19777;BME280;10047;42.490;26.012;2023-05-21T12:55:07;102194.34;;;23.27;100.00
19777;BME280;10047;42.490;26.012;2023-05-21T12:57:35;102181.09;;;22.76;100.00